CheckWX is a tool to help pilots better visualize weather data.  It is not intended as a substitute for an official pre-flight weather briefing.

04:41:12 UTC

PLCH TAF
Cassidy International Airport
Banana, Kiribati
TAF PLCH 230033Z 2300/2324 09008KT 9999 -SHRA SCT018 BKN040 PROB40 TEMPO 2300/2312 3000 TSRA BKN015 FEW018CB

Mar-23@
00:00 UTC

Mar-23 @ 00:00 UTC

Mar-24@
00:00 UTC

Mar-24 @ 00:00 UTC

TAF PLCH 230033Z 2300/2324 09008KT 9999 -SHRA SCT018 BKN040
Wind
  • 090° at 8 KTS
Conditions
Light Rain
Cloud Levels
  • Scattered at 1,800' AGL
  • Broken at 4,000' AGL

Mar-23@
00:00 UTC

Mar-23 @ 00:00 UTC

Mar-23@
12:00 UTC

Mar-23 @ 12:00 UTC

PROB40 TEMPO 2300/2312 3000 TSRA BKN015 FEW018CB

Temporary - 40% Likelihood

Temporary - 40% Likelihood during this time.

Conditions
Thunderstorm, Rain
Cloud Levels
  • Broken at 1,500' AGL
  • Few at 1,800' AGL